Time;durP1;ratioP1;P1;durP2;ratioP2;P2;SDS_P1;SDS_P2;PMS_P1;PMS_P2;Temp;Humidity;BMP_temperature;BMP_pressure;BME280_temperature;BME280_humidity;BME280_pressure;Samples;Min_cycle;Max_cycle;Signal;HPM_P1;HPM_P2
2024/01/01 00:00:56;;;;;;;35.87;20.70;;;;;;;;;;20831840;28;20573;-66
2024/01/01 00:10:58;;;;;;;18.63;10.40;;;;;;;;;;20831064;28;20245;-66
2024/01/01 00:21:02;;;;;;;15.43;8.70;;;;;;;;;;20828984;28;20212;-66
2024/01/01 00:31:04;;;;;;;11.73;7.03;;;;;;;;;;20829487;28;20693;-66
2024/01/01 00:41:06;;;;;;;11.30;6.80;;;;;;;;;;20828860;28;20247;-65
2024/01/01 00:51:08;;;;;;;9.87;5.77;;;;;;;;;;20827486;28;20313;-65
2024/01/01 01:01:10;;;;;;;11.53;5.00;;;;;;;;;;20827769;28;20575;-66
2024/01/01 01:11:13;;;;;;;7.97;4.30;;;;;;;;;;20827095;28;20248;-66
2024/01/01 01:28:22;;;;;;;7.20;5.00;;;9.00;93.50;;;;;;20982121;28;20551;-69
2024/01/01 01:38:24;;;;;;;15.10;5.73;;;;;;;;;;20981504;28;20680;-66
2024/01/01 01:48:27;;;;;;;12.83;7.30;;;;;;;;;;20980122;28;20210;-67
2024/01/01 01:58:30;;;;;;;21.23;9.40;;;;;;;;;;20978981;28;20216;-66
2024/01/01 02:08:32;;;;;;;16.73;9.53;;;;;;;;;;20978813;28;20279;-64
2024/01/01 02:18:34;;;;;;;22.73;11.17;;;;;;;;;;20977126;28;20576;-65
2024/01/01 02:28:37;;;;;;;25.57;11.37;;;;;;;;;;20976491;28;20266;-67
2024/01/01 02:38:39;;;;;;;20.93;12.13;;;;;;;;;;20927211;28;20659;-68
2024/01/01 02:48:41;;;;;;;23.37;12.53;;;;;;;;;;20920515;28;20807;-66
2024/01/01 02:58:44;;;;;;;21.47;11.67;;;;;;;;;;20920719;28;20235;-65
2024/01/01 03:08:46;;;;;;;18.60;10.73;;;;;;;;;;20919259;28;20209;-67
2024/01/01 03:18:48;;;;;;;20.00;10.33;;;;;;;;;;20916833;28;20596;-65
2024/01/01 03:28:50;;;;;;;17.90;10.03;;;;;;;;;;20917208;28;20295;-64
2024/01/01 03:38:52;;;;;;;20.10;11.90;;;;;;;;;;20909559;28;20605;-63
2024/01/01 03:48:55;;;;;;;21.07;11.73;;;;;;;;;;20835806;28;20696;-63
2024/01/01 03:58:57;;;;;;;20.33;11.10;;;;;;;;;;20852121;28;20248;-65
2024/01/01 04:08:59;;;;;;;20.30;11.10;;;;;;;;;;20916501;28;20241;-67
2024/01/01 04:19:01;;;;;;;20.80;11.70;;;;;;;;;;20915866;28;20242;-67
2024/01/01 04:29:03;;;;;;;19.67;10.80;;;;;;;;;;20914833;28;20700;-68
2024/01/01 04:39:05;;;;;;;15.90;10.00;;;;;;;;;;20913593;28;20226;-67
2024/01/01 04:49:08;;;;;;;17.23;9.30;;;;;;;;;;20884950;28;20217;-67
2024/01/01 04:59:10;;;;;;;18.30;8.00;;;;;;;;;;20830518;28;20562;-64
2024/01/01 05:09:12;;;;;;;14.20;7.87;;;;;;;;;;20837044;28;20208;-64
2024/01/01 05:19:14;;;;;;;13.57;6.60;;;;;;;;;;20912277;28;20241;-64
2024/01/01 05:29:16;;;;;;;10.23;4.83;;;;;;;;;;20911890;28;20320;-64
2024/01/01 05:39:19;;;;;;;9.50;4.57;;;;;;;;;;20911611;28;20259;-65
2024/01/01 05:49:21;;;;;;;8.83;4.70;;;;;;;;;;20911639;28;20221;-63
2024/01/01 05:59:23;;;;;;;13.47;4.93;;;;;;;;;;20910910;28;20236;-64
2024/01/01 06:09:26;;;;;;;13.13;4.90;;;;;;;;;;20839322;28;20238;-66
2024/01/01 06:19:28;;;;;;;12.00;4.80;;;;;;;;;;20843096;28;20640;-64
2024/01/01 06:29:30;;;;;;;10.67;4.30;;;;;;;;;;20842290;28;20256;-63
2024/01/01 06:39:32;;;;;;;8.10;2.90;;;;;;;;;;20841427;28;20225;-65
2024/01/01 06:49:35;;;;;;;7.57;2.70;;;;;;;;;;20841064;28;20205;-65
2024/01/01 06:59:37;;;;;;;10.27;4.33;;;;;;;;;;20838579;28;20236;-65
2024/01/01 07:09:39;;;;;;;5.80;1.93;;;;;;;;;;20839139;28;20287;-66
2024/01/01 07:19:42;;;;;;;4.53;2.00;;;;;;;;;;20838284;28;20233;-64
2024/01/01 07:29:44;;;;;;;10.13;3.30;;;;;;;;;;20871746;28;20215;-64
2024/01/01 07:39:46;;;;;;;5.60;2.03;;;;;;;;;;20894770;28;20256;-64
2024/01/01 07:49:48;;;;;;;9.17;2.17;;;;;;;;;;20765006;28;20237;-67
2024/01/01 07:59:55;;;;;;;5.37;1.90;;;;;;;;;;20753085;28;20265;-64
2024/01/01 08:09:57;;;;;;;6.47;2.33;;;;;;;;;;20752622;28;20214;-63
2024/01/01 08:19:59;;;;;;;8.73;2.03;;;;;;;;;;20751894;28;20245;-66
2024/01/01 08:30:03;;;;;;;11.07;2.57;;;;;;;;;;20750663;28;20653;-67
2024/01/01 08:40:06;;;;;;;8.17;2.00;;;;;;;;;;20691960;28;20576;-68
2024/01/01 08:50:08;;;;;;;10.33;2.50;;;;;;;;;;20702832;28;20208;-69
2024/01/01 09:00:10;;;;;;;8.23;2.60;;;;;;;;;;20754516;28;20263;-65
2024/01/01 09:10:16;;;;;;;6.17;1.77;;;9.30;95.00;;;;;;20753541;28;20639;-65
2024/01/01 09:20:19;;;;;;;13.57;2.70;;;;;;;;;;20753515;28;20717;-67
2024/01/01 09:30:21;;;;;;;10.17;2.07;;;;;;;;;;20750868;28;20207;-63
2024/01/01 09:40:23;;;;;;;12.03;2.00;;;;;;;;;;20753738;28;20245;-66
2024/01/01 09:50:25;;;;;;;10.53;2.00;;;;;;;;;;20768534;28;20666;-65
2024/01/01 10:00:28;;;;;;;5.63;1.60;;;;;;;;;;20764903;28;20259;-65
2024/01/01 10:10:30;;;;;;;10.23;2.27;;;;;;;;;;20763922;28;20204;-65
2024/01/01 10:20:32;;;;;;;19.40;2.27;;;;;;;;;;20761110;28;20283;-65
2024/01/01 10:30:34;;;;;;;10.27;2.00;;;;;;;;;;20760806;28;20239;-65
2024/01/01 10:40:36;;;;;;;6.50;2.47;;;;;;;;;;20759298;28;20231;-63
2024/01/01 10:50:46;;;;;;;7.23;2.00;;;9.90;91.80;;;;;;20759266;28;20243;-65
2024/01/01 11:00:59;;;;;;;11.40;2.33;;;9.90;91.40;;;;;;20757678;28;20236;-72
2024/01/01 11:11:32;;;;;;;6.70;1.80;;;10.80;91.00;;;;;;20758290;28;20733;-66
2024/01/01 11:21:35;;;;;;;5.20;1.70;;;;;;;;;;20750642;28;20326;-66
2024/01/01 11:31:37;;;;;;;9.77;1.80;;;;;;;;;;20718345;28;20216;-65
2024/01/01 11:41:39;;;;;;;11.50;1.80;;;;;;;;;;20692077;28;20246;-64
2024/01/01 11:51:55;;;;;;;6.63;1.53;;;10.10;89.30;;;;;;20750929;28;20216;-68
2024/01/01 12:01:58;;;;;;;6.63;1.60;;;;;;;;;;20753205;28;20236;-65
2024/01/01 12:12:05;;;;;;;9.33;1.83;;;9.80;90.20;;;;;;20751542;28;20216;-68
2024/01/01 12:22:21;;;;;;;7.33;1.93;;;9.80;90.50;;;;;;21067827;28;20506;-65
2024/01/01 12:32:24;;;;;;;3.07;1.33;;;9.90;90.70;;;;;;20966020;28;20212;-67
2024/01/01 12:42:26;;;;;;;8.40;1.63;;;;;;;;;;20983569;28;20325;-69
2024/01/01 12:52:28;;;;;;;11.20;2.00;;;;;;;;;;20981349;28;20212;-69
2024/01/01 13:02:30;;;;;;;4.53;1.70;;;;;;;;;;20981091;28;20541;-69
2024/01/01 13:12:32;;;;;;;6.77;1.70;;;;;;;;;;20977804;28;20706;-69
2024/01/01 13:22:34;;;;;;;4.30;1.60;;;;;;;;;;20897057;28;20225;-69
2024/01/01 13:32:38;;;;;;;8.47;1.63;;;;;;;;;;20847668;28;20208;-68
2024/01/01 13:42:40;;;;;;;5.50;1.90;;;;;;;;;;20840629;28;20654;-69
2024/01/01 13:52:43;;;;;;;8.57;1.87;;;;;;;;;;20811210;28;20247;-69
2024/01/01 14:02:45;;;;;;;8.47;2.00;;;;;;;;;;20757559;28;20270;-69
2024/01/01 14:12:47;;;;;;;7.93;1.80;;;9.90;90.90;;;;;;20756126;28;20241;-68
2024/01/01 14:22:50;;;;;;;5.27;2.00;;;;;;;;;;20755866;28;20214;-68
2024/01/01 14:32:53;;;;;;;7.57;1.80;;;;;;;;;;20755185;28;20228;-67
2024/01/01 14:42:56;;;;;;;4.40;1.77;;;;;;;;;;20752997;28;20568;-64
2024/01/01 14:52:58;;;;;;;9.00;2.20;;;;;;;;;;20783970;28;20237;-67
2024/01/01 15:03:01;;;;;;;17.27;6.30;;;;;;;;;;20834778;28;20579;-66
2024/01/01 15:13:04;;;;;;;8.77;2.73;;;;;;;;;;20833372;28;20240;-67
2024/01/01 15:23:07;;;;;;;10.53;2.77;;;;;;;;;;20832918;28;20219;-66
2024/01/01 15:33:09;;;;;;;7.80;2.00;;;;;;;;;;20832666;28;20720;-65
2024/01/01 15:43:13;;;;;;;8.10;2.10;;;;;;;;;;20831372;28;20211;-68
2024/01/01 15:53:15;;;;;;;15.03;2.70;;;;;;;;;;20797779;28;20272;-70
2024/01/01 16:03:17;;;;;;;15.27;2.70;;;;;;;;;;20759679;28;20696;-66
2024/01/01 16:13:20;;;;;;;19.50;6.20;;;;;;;;;;20771198;28;20273;-72
2024/01/01 16:23:22;;;;;;;21.13;3.40;;;;;;;;;;20786842;28;20294;-72
2024/01/01 16:33:25;;;;;;;13.80;3.40;;;;;;;;;;20747599;28;20293;-68
2024/01/01 16:43:27;;;;;;;11.33;3.20;;;;;;;;;;20747007;28;20259;-70
2024/01/01 16:53:29;;;;;;;9.90;2.60;;;;;;;;;;20746640;28;20235;-68
2024/01/01 17:03:32;;;;;;;12.83;3.13;;;;;;;;;;20753186;28;20217;-66
2024/01/01 17:13:34;;;;;;;14.10;3.75;;;9.80;90.90;;;;;;20739755;28;20459;-71
2024/01/01 17:23:36;;;;;;;13.87;3.30;;;;;;;;;;20760114;28;20298;-70
2024/01/01 17:33:39;;;;;;;8.47;2.97;;;;;;;;;;20759575;28;20706;-70
2024/01/01 17:43:41;;;;;;;11.30;3.27;;;;;;;;;;20758930;28;20604;-71
2024/01/01 17:53:44;;;;;;;15.40;3.10;;;;;;;;;;20758086;28;20322;-71
2024/01/01 18:03:46;;;;;;;13.37;2.80;;;;;;;;;;20758055;28;20266;-70
2024/01/01 18:13:48;;;;;;;8.90;2.63;;;;;;;;;;20755948;28;20254;-72
2024/01/01 18:23:52;;;;;;;8.67;3.27;;;;;;;;;;20755526;28;20205;-73
2024/01/01 18:33:54;;;;;;;14.27;3.17;;;;;;;;;;20755190;28;20255;-68
2024/01/01 18:43:56;;;;;;;14.90;3.47;;;;;;;;;;20754146;28;20790;-69
2024/01/01 18:53:58;;;;;;;13.87;4.00;;;;;;;;;;20753313;28;20236;-69
2024/01/01 19:04:00;;;;;;;11.07;3.00;;;;;;;;;;20752808;28;20266;-68
2024/01/01 19:14:14;;;;;;;16.57;3.40;;;;;;;;;;20752695;28;20243;-69
2024/01/01 19:24:16;;;;;;;15.30;3.33;;;;;;;;;;20787786;28;20211;-70
2024/01/01 19:34:18;;;;;;;13.97;3.33;;;;;;;;;;20779037;28;20731;-68
2024/01/01 19:44:21;;;;;;;10.63;2.90;;;;;;;;;;20749916;28;20212;-67
2024/01/01 19:54:23;;;;;;;14.67;2.47;;;;;;;;;;20749250;28;20234;-72
2024/01/01 20:04:25;;;;;;;13.37;3.07;;;;;;;;;;20749104;28;20206;-72
2024/01/01 20:14:27;;;;;;;18.63;3.20;;;;;;;;;;20748193;28;20837;-72
2024/01/01 20:24:30;;;;;;;12.80;3.20;;;;;;;;;;20747794;28;20210;-69
2024/01/01 20:34:32;;;;;;;8.27;2.87;;;;;;;;;;20762347;28;20265;-70
2024/01/01 20:44:34;;;;;;;11.27;2.53;;;;;;;;;;20783212;28;20210;-70
2024/01/01 20:54:37;;;;;;;9.00;2.60;;;;;;;;;;20759793;28;20560;-73
2024/01/01 21:04:40;;;;;;;13.10;2.60;;;;;;;;;;20758824;28;20217;-73
2024/01/01 21:14:43;;;;;;;9.27;2.27;;;;;;;;;;20758695;28;20243;-73
2024/01/01 21:24:46;;;;;;;7.67;2.20;;;;;;;;;;20758054;28;20657;-74
2024/01/01 21:34:48;;;;;;;10.17;2.23;;;;;;;;;;20757796;28;20247;-72
2024/01/01 21:44:51;;;;;;;8.90;2.20;;;;;;;;;;20756247;28;20284;-71
2024/01/01 21:54:57;;;;;;;9.13;2.20;;;;;;;;;;20755483;28;20242;-72
2024/01/01 22:04:59;;;;;;;11.10;2.50;;;;;;;;;;20755484;28;20586;-73
2024/01/01 22:15:01;;;;;;;8.37;2.97;;;;;;;;;;20753838;28;20573;-73
2024/01/01 22:25:03;;;;;;;8.83;2.40;;;;;;;;;;20753015;28;20215;-74
2024/01/01 22:35:06;;;;;;;9.93;2.70;;;;;;;;;;20751833;28;20318;-74
2024/01/01 22:45:08;;;;;;;7.30;2.07;;;;;;;;;;20733323;28;20209;-74
2024/01/01 22:55:11;;;;;;;5.60;1.93;;;;;;;;;;20750902;28;20237;-73
2024/01/01 23:05:20;;;;;;;8.80;2.23;;;10.50;87.60;;;;;;20749617;28;20689;-73
2024/01/01 23:15:25;;;;;;;7.40;2.20;;;9.00;87.70;;;;;;20749221;28;20242;-73
2024/01/01 23:25:27;;;;;;;7.43;1.83;;;;;;;;;;20748581;28;20206;-72
2024/01/01 23:35:33;;;;;;;10.47;2.20;;;;;;;;;;20747746;28;20746;-73
2024/01/01 23:45:36;;;;;;;6.67;1.87;;;;;;;;;;20747943;28;20211;-73
2024/01/01 23:55:38;;;;;;;7.50;2.20;;;;;;;;;;20746589;28;20595;-73
